Time;durP1;ratioP1;P1;durP2;ratioP2;P2;SDS_P1;SDS_P2;PMS_P1;PMS_P2;Temp;Humidity;BMP_temperature;BMP_pressure;BME280_temperature;BME280_humidity;BME280_pressure;Samples;Min_cycle;Max_cycle;Signal;HPM_P1;HPM_P2
2023/03/02 00:02:16;;;;;;;;;;;4.70;99.90;;;;;;5034635;28;19920;-91
2023/03/02 00:05:23;;;;;;;;;;;;;;;;;;;;;
2023/03/02 00:08:22;;;;;;;;;;;;;;;;;;;;;
2023/03/02 00:11:00;;;;;;;;;;;;;;;;;;;;;
2023/03/02 00:13:43;;;;;;;;;;;;;;;;;;;;;
2023/03/02 00:16:40;;;;;;;;;;;;;;;;;;;;;
2023/03/02 00:19:25;;;;;;;;;;;3.90;99.90;;;;;;5066452;28;19989;-91
2023/03/02 00:22:09;;;;;;;;;;;;;;;;;;;;;
2023/03/02 00:24:50;;;;;;;;;;;2.10;99.90;;;;;;5027076;28;19975;-91
2023/03/02 00:27:20;;;;;;;;;;;2.90;99.90;;;;;;5035107;28;19932;-91
2023/03/02 00:29:48;;;;;;;;;;;2.10;99.90;;;;;;5001795;28;20377;-90
2023/03/02 00:32:33;;;;;;;;;;;2.70;99.90;;;;;;5019393;28;19932;-91
2023/03/02 00:38:10;;;;;;;;;;;2.80;99.90;;;;;;5007486;28;20402;-92
2023/03/02 00:40:52;;;;;;;;;;;1.60;99.90;;;;;;4990194;28;19991;-90
2023/03/02 00:43:27;;;;;;;;;;;3.10;99.90;;;;;;5006100;28;19925;-91
2023/03/02 00:46:12;;;;;;;;;;;0.80;99.90;;;;;;4988298;28;19980;-90
2023/03/02 00:49:01;;;;;;;;;;;;;;;;;;;;;
2023/03/02 00:51:27;;;;;;;;;;;4.90;99.90;;;;;;5000559;28;20016;-92
2023/03/02 00:53:56;;;;;;;;;;;-0.20;99.90;;;;;;4981711;28;19929;-91
2023/03/02 00:56:29;;;;;;;;;;;1.90;99.90;;;;;;4972484;28;19933;-91
2023/03/02 00:59:25;;;;;;;;;;;5.20;99.90;;;;;;4977119;28;20020;-92
2023/03/02 01:01:46;;;;;;;;;;;3.50;99.90;;;;;;4982354;28;19925;-91
2023/03/02 01:04:28;;;;;;;;;;;2.70;99.90;;;;;;4985177;28;19929;-91
2023/03/02 01:07:25;;;;;;;;;;;;;;;;;;;;;
2023/03/02 01:09:57;;;;;;;;;;;0.80;99.90;;;;;;5009226;28;19926;-91
2023/03/02 01:12:25;;;;;;;;;;;3.40;99.90;;;;;;4971260;28;20381;-90
2023/03/02 01:15:04;;;;;;;;;;;;;;;;;;;;;
2023/03/02 01:17:42;;;;;;;;;;;1.90;99.90;;;;;;5001603;28;20412;-91
2023/03/02 01:20:43;;;;;;;;;;;1.90;99.90;;;;;;5006776;28;19933;-90
2023/03/02 01:23:30;;;;;;;;;;;3.00;99.90;;;;;;4982179;28;19926;-90
2023/03/02 01:26:15;;;;;;;;;;;2.90;99.90;;;;;;4993420;28;19925;-91
2023/03/02 01:28:54;;;;;;;;;;;;;;;;;;;;;
2023/03/02 01:31:45;;;;;;;;;;;1.90;99.90;;;;;;4983111;28;20407;-91
2023/03/02 01:34:31;;;;;;;;;;;;;;;;;;;;;
2023/03/02 01:37:17;;;;;;;;;;;2.60;99.90;;;;;;4994206;28;19949;-91
2023/03/02 01:39:47;;;;;;;;;;;2.30;99.90;;;;;;4965254;28;19936;-91
2023/03/02 01:45:27;;;;;;;;;;;0.00;99.90;;;;;;4987057;28;19926;-91
2023/03/02 01:48:03;;;;;;;;;;;5.30;99.90;;;;;;4917498;29;20041;-92
2023/03/02 01:50:32;;;;;;;;;;;2.50;99.90;;;;;;4977853;28;20292;-90
2023/03/02 01:53:00;;;;;;;;;;;2.40;99.90;;;;;;5013193;28;19925;-90
2023/03/02 01:55:40;;;;;;;;;;;;;;;;;;;;;
2023/03/02 02:00:59;;;;;;;;;;;0.40;99.90;;;;;;4989314;28;19925;-91
2023/03/02 02:03:48;;;;;;;;;;;1.80;99.90;;;;;;4962650;28;20006;-90
2023/03/02 02:06:26;;;;;;;;;;;1.40;99.90;;;;;;4982797;28;19926;-90
2023/03/02 02:09:04;;;;;;;;;;;4.50;99.90;;;;;;4997076;28;20012;-92
2023/03/02 02:11:40;;;;;;;;;;;2.00;99.90;;;;;;4979946;28;19933;-90
2023/03/02 02:14:13;;;;;;;;;;;3.40;99.90;;;;;;4972689;28;20342;-91
2023/03/02 02:16:59;;;;;;;;;;;4.70;99.90;;;;;;4966946;28;20005;-92
2023/03/02 02:19:44;;;;;;;;;;;;;;;;;;;;;
2023/03/02 02:22:14;;;;;;;;;;;1.70;99.90;;;;;;5011091;28;20362;-91
2023/03/02 02:24:48;;;;;;;;;;;1.50;99.90;;;;;;4966174;28;19934;-91
2023/03/02 02:27:22;;;;;;;;;;;4.30;99.90;;;;;;4991653;28;19925;-90
2023/03/02 02:29:59;;;;;;;;;;;4.10;99.90;;;;;;4985803;28;19976;-91
2023/03/02 02:32:29;;;;;;;;;;;-0.10;99.90;;;;;;4978133;28;19929;-91
2023/03/02 02:35:16;;;;;;;;;;;0.20;99.90;;;;;;4981462;28;20424;-91
2023/03/02 02:37:55;;;;;;;;;;;2.50;99.90;;;;;;4979752;28;19992;-91
2023/03/02 02:40:58;;;;;;;;;;;2.20;99.90;;;;;;4991810;28;19980;-91
2023/03/02 02:43:44;;;;;;;;;;;;;;;;;;;;;
2023/03/02 02:46:23;;;;;;;;;;;;;;;;;;;;;
2023/03/02 02:48:49;;;;;;;;;;;2.20;99.90;;;;;;4996185;28;19925;-90
2023/03/02 02:51:32;;;;;;;;;;;2.60;99.90;;;;;;5001033;28;19990;-91
2023/03/02 02:54:24;;;;;;;;;;;2.20;99.90;;;;;;4984536;28;19950;-90
2023/03/02 02:57:07;;;;;;;;;;;3.90;99.90;;;;;;5013528;28;19925;-92
2023/03/02 02:59:41;;;;;;;;;;;1.80;99.90;;;;;;4987651;28;19925;-91
2023/03/02 03:02:12;;;;;;;;;;;5.10;99.90;;;;;;5015598;28;19925;-91
2023/03/02 03:04:50;;;;;;;;;;;-0.10;99.90;;;;;;4991405;28;20352;-91
2023/03/02 03:07:29;;;;;;;;;;;1.70;99.90;;;;;;5032534;28;19939;-90
2023/03/02 03:10:15;;;;;;;;;;;2.40;99.90;;;;;;4999049;28;19968;-91
2023/03/02 03:12:50;;;;;;;;;;;0.50;99.90;;;;;;4996396;28;19932;-91
2023/03/02 03:18:31;;;;;;;;;;;;;;;;;;;;;
2023/03/02 03:21:11;;;;;;;;;;;1.40;99.90;;;;;;5015484;28;19936;-91
2023/03/02 03:23:52;;;;;;;;;;;;;;;;;;;;;
2023/03/02 03:26:34;;;;;;;;;;;0.90;99.90;;;;;;5031818;28;19948;-90
2023/03/02 03:29:23;;;;;;;;;;;2.30;99.90;;;;;;4998633;28;20276;-91
2023/03/02 03:31:53;;;;;;;;;;;1.40;99.90;;;;;;5002385;28;19925;-90
2023/03/02 03:34:22;;;;;;;;;;;3.60;99.90;;;;;;5001665;28;19973;-90
2023/03/02 03:36:56;;;;;;;;;;;-0.80;99.90;;;;;;5001133;28;19926;-91
2023/03/02 03:39:21;;;;;;;;;;;3.40;99.90;;;;;;5018292;28;20012;-92
2023/03/02 03:41:52;;;;;;;;;;;2.00;99.90;;;;;;5009376;28;19936;-91
2023/03/02 03:44:32;;;;;;;;;;;0.00;99.90;;;;;;5009088;28;20028;-91
2023/03/02 03:47:01;;;;;;;;;;;2.30;99.90;;;;;;5003256;28;19925;-92
2023/03/02 03:49:32;;;;;;;;;;;0.20;99.90;;;;;;4986443;28;20012;-91
2023/03/02 03:52:57;;;;;;;;;;;1.40;99.90;;;;;;4998027;28;19925;-91
2023/03/02 03:55:31;;;;;;;;;;;;;;;;;;;;;
2023/03/02 03:57:59;;;;;;;;;;;1.10;99.90;;;;;;5018688;28;19939;-90
2023/03/02 04:03:19;;;;;;;;;;;1.10;99.90;;;;;;5012031;28;19959;-92
2023/03/02 04:08:52;;;;;;;;;;;;;;;;;;;;;
2023/03/02 04:11:38;;;;;;;;;;;1.00;99.90;;;;;;5011829;28;19948;-90
2023/03/02 04:14:26;;;;;;;;;;;3.40;99.90;;;;;;5034957;28;19929;-91
2023/03/02 04:17:06;;;;;;;;;;;-0.70;99.90;;;;;;4998273;28;19929;-91
2023/03/02 04:19:42;;;;;;;;;;;1.20;99.90;;;;;;5002822;28;19929;-93
2023/03/02 04:22:26;;;;;;;;;;;1.10;99.90;;;;;;5002259;28;19925;-90
2023/03/02 04:25:10;;;;;;;;;;;;;;;;;;;;;
2023/03/02 04:31:11;;;;;;;;;;;;;;;;;;;;;
2023/03/02 04:37:04;;;;;;;;;;;0.90;99.90;;;;;;5011364;28;20360;-91
2023/03/02 04:40:14;;;;;;;;;;;-1.50;99.90;;;;;;5001346;28;20008;-92
2023/03/02 04:43:00;;;;;;;;;;;0.90;99.90;;;;;;5021139;28;19933;-92
2023/03/02 04:45:25;;;;;;;;;;;1.00;99.90;;;;;;5021197;28;19976;-91
2023/03/02 04:48:19;;;;;;;;;;;1.90;99.90;;;;;;5019249;28;19963;-90
2023/03/02 04:53:47;;;;;;;;;;;0.90;99.90;;;;;;5004705;28;19914;-92
2023/03/02 04:59:26;;;;;;;;;;;-0.10;99.90;;;;;;5039972;28;19944;-91
2023/03/02 05:01:56;;;;;;;;;;;3.50;99.90;;;;;;5016924;28;19940;-90
2023/03/02 05:04:27;;;;;;;;;;;3.30;99.90;;;;;;5032841;28;19931;-92
2023/03/02 05:06:55;;;;;;;;;;;1.40;99.90;;;;;;5026209;28;19913;-90
2023/03/02 05:09:27;;;;;;;;;;;-0.60;99.90;;;;;;5042272;28;19923;-91
2023/03/02 05:12:26;;;;;;;;;;;;;;;;;;;;;
2023/03/02 05:15:08;;;;;;;;;;;1.60;99.90;;;;;;5007273;28;19925;-90
2023/03/02 05:17:39;;;;;;;;;;;1.80;99.90;;;;;;4983630;28;20353;-92
2023/03/02 05:20:26;;;;;;;;;;;;;;;;;;;;;
2023/03/02 05:23:15;;;;;;;;;;;-1.10;99.90;;;;;;5037211;28;19928;-90
2023/03/02 05:26:25;;;;;;;;;;;1.10;99.90;;;;;;4987540;28;20000;-90
2023/03/02 05:28:54;;;;;;;;;;;1.90;99.90;;;;;;4998727;28;20016;-92
2023/03/02 05:31:23;;;;;;;;;;;-0.50;99.90;;;;;;5001488;28;19969;-90
2023/03/02 05:33:59;;;;;;;;;;;2.70;99.90;;;;;;5001609;28;19925;-91
2023/03/02 05:36:34;;;;;;;;;;;1.10;99.90;;;;;;4991507;28;20522;-91
2023/03/02 05:39:40;;;;;;;;;;;;;;;;;;;;;
2023/03/02 05:42:19;;;;;;;;;;;1.40;99.90;;;;;;5034888;28;19929;-92
2023/03/02 05:44:54;;;;;;;;;;;4.40;99.90;;;;;;5032701;28;19929;-90
2023/03/02 05:47:27;;;;;;;;;;;1.00;99.90;;;;;;5008115;28;19926;-92
2023/03/02 05:50:11;;;;;;;;;;;1.60;99.90;;;;;;5007400;28;19925;-92
2023/03/02 05:53:01;;;;;;;;;;;1.00;99.90;;;;;;4996430;28;20381;-92
2023/03/02 05:55:40;;;;;;;;;;;0.90;99.90;;;;;;4986148;28;22939;-91
2023/03/02 05:58:18;;;;;;;;;;;0.80;99.90;;;;;;4979385;28;20019;-91
2023/03/02 06:03:54;;;;;;;;;;;0.70;99.90;;;;;;4971792;28;19929;-92
2023/03/02 06:06:23;;;;;;;;;;;0.60;99.90;;;;;;4980700;28;19931;-91
2023/03/02 06:08:48;;;;;;;;;;;0.50;99.90;;;;;;4978027;28;19926;-91
2023/03/02 06:14:21;;;;;;;;;;;;;;;;;;;;;
2023/03/02 06:16:50;;;;;;;;;;;0.60;99.90;;;;;;5006777;28;19926;-91
2023/03/02 06:19:30;;;;;;;;;;;0.80;99.90;;;;;;4990698;28;20369;-91
2023/03/02 06:22:01;;;;;;;;;;;0.50;99.90;;;;;;4986117;28;19932;-92
2023/03/02 06:24:50;;;;;;;;;;;0.50;99.90;;;;;;5001210;28;19926;-91
2023/03/02 06:27:25;;;;;;;;;;;0.60;99.90;;;;;;4978861;28;19933;-92
2023/03/02 06:30:18;;;;;;;;;;;0.50;99.90;;;;;;4962129;28;19930;-91
2023/03/02 06:32:48;;;;;;;;;;;0.60;99.90;;;;;;4998022;28;20309;-91
2023/03/02 06:35:34;;;;;;;;;;;0.50;99.90;;;;;;4966711;28;20380;-90
2023/03/02 06:41:12;;;;;;;;;;;0.60;99.90;;;;;;4991720;28;19926;-93
2023/03/02 06:44:08;;;;;;;;;;;0.50;99.90;;;;;;4980194;28;19937;-90
2023/03/02 06:46:44;;;;;;;;;;;0.70;99.90;;;;;;4980982;28;19925;-90
2023/03/02 06:49:25;;;;;;;;;;;;;;;;;;;;;
2023/03/02 06:51:57;;;;;;;;;;;0.50;99.90;;;;;;4996052;28;20039;-91
2023/03/02 06:54:28;;;;;;;;;;;0.50;99.90;;;;;;4981115;28;20289;-90
2023/03/02 06:57:07;;;;;;;;;;;;;;;;;;;;;
2023/03/02 06:59:35;;;;;;;;;;;0.60;99.90;;;;;;5021569;28;19947;-89
2023/03/02 07:02:11;;;;;;;;;;;0.60;99.90;;;;;;4963972;28;19932;-91
2023/03/02 07:04:54;;;;;;;;;;;0.90;99.90;;;;;;4967436;28;19930;-92
2023/03/02 07:07:22;;;;;;;;;;;-1.00;99.90;;;;;;4986420;28;19980;-92
2023/03/02 07:10:12;;;;;;;;;;;6.10;99.90;;;;;;4995301;28;20297;-91
2023/03/02 07:13:10;;;;;;;;;;;0.50;99.90;;;;;;5000277;28;20218;-92
2023/03/02 07:15:39;;;;;;;;;;;0.50;99.90;;;;;;4993240;28;19925;-90
2023/03/02 07:18:08;;;;;;;;;;;3.50;99.90;;;;;;4984876;28;19926;-90
2023/03/02 07:20:34;;;;;;;;;;;-1.60;99.90;;;;;;4972052;28;20396;-88
2023/03/02 07:23:11;;;;;;;;;;;4.10;99.90;;;;;;4990494;28;19926;-90
2023/03/02 07:25:39;;;;;;;;;;;0.40;99.90;;;;;;4961482;28;20001;-88
2023/03/02 07:28:23;;;;;;;;;;;0.40;99.90;;;;;;4990806;28;20013;-88
2023/03/02 07:30:51;;;;;;;;;;;0.50;99.90;;;;;;4975053;28;20299;-88
2023/03/02 07:33:22;;;;;;;;;;;4.20;99.90;;;;;;4981238;28;19933;-89
2023/03/02 07:35:52;;;;;;;;;;;0.40;99.90;;;;;;4985603;28;19933;-88
2023/03/02 07:38:20;;;;;;;;;;;3.40;99.90;;;;;;4989468;28;20395;-88
2023/03/02 07:40:52;;;;;;;;;;;0.50;99.90;;;;;;5003875;28;20388;-88
2023/03/02 07:43:22;;;;;;;;;;;0.50;99.90;;;;;;4996928;28;20039;-88
2023/03/02 07:45:50;;;;;;;;;;;0.30;99.90;;;;;;5014634;28;19925;-89
2023/03/02 07:48:18;;;;;;;;;;;0.40;99.90;;;;;;4980317;28;19988;-89
2023/03/02 07:50:44;;;;;;;;;;;0.30;99.90;;;;;;5007167;28;19986;-89
2023/03/02 07:53:16;;;;;;;;;;;4.20;99.90;;;;;;4982480;28;19937;-88
2023/03/02 07:55:52;;;;;;;;;;;-0.50;99.90;;;;;;4994812;28;19925;-90
2023/03/02 07:58:23;;;;;;;;;;;0.40;99.90;;;;;;5006101;28;19926;-89
2023/03/02 08:00:54;;;;;;;;;;;0.50;99.90;;;;;;4984841;28;19933;-90
2023/03/02 08:03:30;;;;;;;;;;;;;;;;;;;;;
2023/03/02 08:05:58;;;;;;;;;;;0.50;99.90;;;;;;4993464;28;19936;-89
2023/03/02 08:08:34;;;;;;;;;;;0.50;99.90;;;;;;4992152;28;19932;-89
2023/03/02 08:11:09;;;;;;;;;;;0.50;99.90;;;;;;4979264;28;19929;-88
2023/03/02 08:13:37;;;;;;;;;;;0.60;99.90;;;;;;4998125;28;20296;-88
2023/03/02 08:16:12;;;;;;;;;;;4.70;99.90;;;;;;5010423;28;19925;-90
2023/03/02 08:19:16;;;;;;;;;;;1.40;99.90;;;;;;5011218;28;19933;-89
2023/03/02 08:21:42;;;;;;;;;;;-1.20;99.90;;;;;;4985935;28;19973;-87
2023/03/02 08:24:31;;;;;;;;;;;0.60;99.90;;;;;;4992782;28;19926;-90
2023/03/02 08:27:51;;;;;;;;;;;;;;;;;;;;;
2023/03/02 08:30:30;;;;;;;;;;;3.60;99.90;;;;;;4991647;28;19976;-90
2023/03/02 08:33:06;;;;;;;;;;;;;;;;;;;;;
2023/03/02 08:36:02;;;;;;;;;;;;;;;;;;;;;
2023/03/02 08:38:46;;;;;;;;;;;4.10;99.90;;;;;;4985491;28;19925;-90
2023/03/02 08:41:35;;;;;;;;;;;;;;;;;;;;;
2023/03/02 08:44:16;;;;;;;;;;;;;;;;;;;;;
2023/03/02 08:47:07;;;;;;;;;;;-1.60;99.90;;;;;;5013397;28;20037;-90
2023/03/02 08:49:48;;;;;;;;;;;;;;;;;;;;;
2023/03/02 08:52:19;;;;;;;;;;;1.80;99.90;;;;;;5002173;28;19925;-90
2023/03/02 08:54:50;;;;;;;;;;;1.10;99.90;;;;;;4981579;28;19972;-90
2023/03/02 09:00:17;;;;;;;;;;;4.10;99.90;;;;;;4995788;28;20442;-90
2023/03/02 09:03:02;;;;;;;;;;;1.00;99.90;;;;;;4997145;28;20459;-91
2023/03/02 09:05:35;;;;;;;;;;;4.70;99.90;;;;;;4979119;28;19980;-90
2023/03/02 09:08:09;;;;;;;;;;;2.10;99.90;;;;;;4998900;28;20028;-91
2023/03/02 09:11:08;;;;;;;;;;;;;;;;;;;;;
2023/03/02 09:14:16;;;;;;;;;;;;;;;;;;;;;
2023/03/02 09:17:18;;;;;;;;;;;;;;;;;;;;;
2023/03/02 09:20:06;;;;;;;;;;;;;;;;;;;;;
2023/03/02 09:26:02;;;;;;;;;;;0.50;99.90;;;;;;5027549;28;19921;-90
2023/03/02 09:31:53;;;;;;;;;;;;;;;;;;;;;
2023/03/02 09:34:55;;;;;;;;;;;2.20;99.90;;;;;;4994739;28;19933;-90
2023/03/02 09:40:38;;;;;;;;;;;0.00;99.90;;;;;;4997374;28;19975;-90
2023/03/02 09:43:24;;;;;;;;;;;4.70;99.90;;;;;;4971431;28;20294;-90
2023/03/02 09:46:15;;;;;;;;;;;0.20;99.90;;;;;;4982046;28;19933;-89
2023/03/02 09:49:05;;;;;;;;;;;2.20;99.90;;;;;;5007661;28;19932;-90
2023/03/02 09:51:55;;;;;;;;;;;2.30;99.90;;;;;;5002444;28;20012;-90
2023/03/02 09:54:33;;;;;;;;;;;2.60;99.90;;;;;;4983418;28;19981;-89
2023/03/02 09:57:02;;;;;;;;;;;4.00;99.90;;;;;;5002781;28;19964;-90
2023/03/02 09:59:53;;;;;;;;;;;4.30;99.90;;;;;;5029162;28;20413;-88
2023/03/02 10:02:42;;;;;;;;;;;2.30;99.90;;;;;;5014384;28;19925;-88
2023/03/02 10:05:24;;;;;;;;;;;3.40;99.90;;;;;;5009293;28;20041;-90
2023/03/02 10:07:50;;;;;;;;;;;4.80;99.90;;;;;;5030878;28;19972;-91
2023/03/02 10:10:47;;;;;;;;;;;4.70;99.90;;;;;;5006287;28;19969;-88
2023/03/02 10:13:34;;;;;;;;;;;2.40;99.90;;;;;;4997308;28;20332;-88
2023/03/02 10:16:13;;;;;;;;;;;2.50;99.90;;;;;;4976822;28;19925;-89
2023/03/02 10:19:11;;;;;;;;;;;1.20;99.90;;;;;;5018580;28;19940;-90
2023/03/02 10:21:52;;;;;;;;;;;;;;;;;;;;;
2023/03/02 10:24:34;;;;;;;;;;;;;;;;;;;;;
2023/03/02 10:30:16;;;;;;;;;;;1.80;99.90;;;;;;4992674;28;20266;-93
2023/03/02 10:45:26;;;;;;;;;;;4.50;99.90;;;;;;4964095;28;19929;-89
2023/03/02 10:48:31;;;;;;;;;;;4.20;99.90;;;;;;5016277;28;19924;-90
2023/03/02 10:53:52;;;;;;;;;;;4.50;99.90;;;;;;4894374;29;19927;-88
2023/03/02 10:56:37;;;;;;;;;;;6.80;99.90;;;;;;4994910;28;19933;-89
2023/03/02 10:59:42;;;;;;;;;;;;;;;;;;;;;
2023/03/02 11:02:36;;;;;;;;;;;;;;;;;;;;;
2023/03/02 11:05:22;;;;;;;;;;;3.10;99.90;;;;;;4996879;28;20012;-89
2023/03/02 11:08:03;;;;;;;;;;;3.20;99.90;;;;;;5000484;28;19925;-89
2023/03/02 11:10:55;;;;;;;;;;;3.30;99.90;;;;;;4985308;28;19956;-89
2023/03/02 11:13:49;;;;;;;;;;;;;;;;;;;;;
2023/03/02 11:16:18;;;;;;;;;;;3.80;99.90;;;;;;5014911;28;19929;-88
2023/03/02 11:18:56;;;;;;;;;;;2.00;99.90;;;;;;5010953;28;19932;-88
2023/03/02 11:21:46;;;;;;;;;;;;;;;;;;;;;
2023/03/02 11:24:43;;;;;;;;;;;2.60;99.90;;;;;;5007441;28;20021;-88
2023/03/02 11:27:25;;;;;;;;;;;;;;;;;;;;;
2023/03/02 11:30:12;;;;;;;;;;;3.70;99.90;;;;;;5023706;28;19925;-90
2023/03/02 11:33:09;;;;;;;;;;;3.60;99.90;;;;;;5011111;28;19964;-89
2023/03/02 11:35:43;;;;;;;;;;;4.10;99.90;;;;;;5007610;28;20016;-89
2023/03/02 11:41:59;;;;;;;;;;;;;;;;;;;;;
2023/03/02 11:57:48;;;;;;;;;;;3.10;99.90;;;;;;5023704;28;20004;-90
2023/03/02 12:00:58;;;;;;;;;;;;;;;;;;;;;
2023/03/02 12:20:25;;;;;;;;;;;5.60;99.90;;;;;;4978203;28;20433;-92
2023/03/02 12:27:00;;;;;;;;;;;;;;;;;;;;;
2023/03/02 12:39:13;;;;;;;;;;;;;;;;;;;;;
2023/03/02 12:48:36;;;;;;;;;;;;;;;;;;;;;
2023/03/02 12:57:17;;;;;;;;;;;5.00;99.90;;;;;;5031449;28;19932;-92
2023/03/02 13:03:30;;;;;;;;;;;7.70;99.90;;;;;;4992720;28;19932;-91
2023/03/02 13:06:25;;;;;;;;;;;5.20;99.90;;;;;;5017679;28;20284;-91
2023/03/02 13:08:54;;;;;;;;;;;5.30;99.90;;;;;;5006467;28;20225;-89
2023/03/02 13:11:30;;;;;;;;;;;5.00;99.90;;;;;;5001064;28;20318;-89
2023/03/02 13:14:29;;;;;;;;;;;7.20;99.90;;;;;;4998478;28;20328;-90
2023/03/02 13:16:58;;;;;;;;;;;5.50;99.90;;;;;;5011926;28;20452;-90
2023/03/02 13:19:51;;;;;;;;;;;5.40;99.90;;;;;;4982112;28;20341;-89
2023/03/02 13:22:23;;;;;;;;;;;4.80;99.90;;;;;;4993332;28;19979;-89
2023/03/02 13:28:15;;;;;;;;;;;4.50;99.90;;;;;;5037154;28;19940;-89
2023/03/02 13:30:52;;;;;;;;;;;4.60;99.90;;;;;;4992829;28;20335;-92
2023/03/02 13:33:34;;;;;;;;;;;;;;;;;;;;;
2023/03/02 13:36:28;;;;;;;;;;;5.80;99.90;;;;;;5028144;28;19979;-92
2023/03/02 13:39:18;;;;;;;;;;;5.70;99.90;;;;;;5052194;28;19943;-91
2023/03/02 13:42:11;;;;;;;;;;;5.70;99.90;;;;;;5032285;28;19929;-92
2023/03/02 13:44:45;;;;;;;;;;;6.00;99.90;;;;;;5028658;28;19977;-92
2023/03/02 13:47:47;;;;;;;;;;;;;;;;;;;;;
2023/03/02 13:50:54;;;;;;;;;;;4.40;99.90;;;;;;5037726;28;19981;-91
2023/03/02 13:53:23;;;;;;;;;;;6.20;99.90;;;;;;5011122;28;19913;-93
2023/03/02 13:56:16;;;;;;;;;;;8.40;99.90;;;;;;5044599;28;19920;-91
2023/03/02 13:59:21;;;;;;;;;;;;;;;;;;;;;
2023/03/02 14:02:12;;;;;;;;;;;6.20;99.90;;;;;;4999990;28;19932;-91
2023/03/02 14:05:11;;;;;;;;;;;;;;;;;;;;;
2023/03/02 14:07:52;;;;;;;;;;;;;;;;;;;;;
2023/03/02 14:10:26;;;;;;;;;;;6.30;99.90;;;;;;4995502;28;20289;-91
2023/03/02 14:13:07;;;;;;;;;;;4.30;99.90;;;;;;4974975;28;20285;-90
2023/03/02 14:15:52;;;;;;;;;;;6.30;99.90;;;;;;4979849;28;19996;-91
2023/03/02 14:18:38;;;;;;;;;;;7.00;99.90;;;;;;5011978;28;19925;-91
2023/03/02 14:21:34;;;;;;;;;;;;;;;;;;;;;
2023/03/02 14:24:25;;;;;;;;;;;6.70;99.90;;;;;;5010155;28;20422;-91
2023/03/02 14:27:14;;;;;;;;;;;6.90;99.90;;;;;;4996503;28;19976;-90
2023/03/02 14:29:47;;;;;;;;;;;6.80;99.90;;;;;;4994120;28;19936;-91
2023/03/02 14:32:39;;;;;;;;;;;6.50;99.90;;;;;;4968829;28;19933;-92
2023/03/02 14:35:18;;;;;;;;;;;7.00;99.90;;;;;;4968426;28;19926;-92
2023/03/02 14:52:23;;;;;;;;;;;;;;;;;;;;;
2023/03/02 14:55:07;;;;;;;;;;;6.70;99.90;;;;;;5130042;27;2035651;-95
2023/03/02 14:57:35;;;;;;;;;;;6.80;99.90;;;;;;5166394;27;19915;-94
2023/03/02 15:00:01;;;;;;;;;;;6.80;99.90;;;;;;5154433;27;19923;-95
2023/03/02 15:02:26;;;;;;;;;;;6.80;99.90;;;;;;5150930;27;20017;-96
2023/03/02 15:04:53;;;;;;;;;;;6.90;99.90;;;;;;5143778;27;19927;-95
2023/03/02 15:07:19;;;;;;;;;;;6.80;99.90;;;;;;5152338;27;19935;-93
2023/03/02 15:09:45;;;;;;;;;;;6.80;99.90;;;;;;5149338;27;19979;-94
2023/03/02 15:12:11;;;;;;;;;;;6.90;99.90;;;;;;5133002;27;19927;-95
2023/03/02 15:14:36;;;;;;;;;;;6.90;99.90;;;;;;5142663;27;19934;-92
2023/03/02 15:17:02;;;;;;;;;;;6.90;99.90;;;;;;5135268;27;19987;-92
2023/03/02 15:19:28;;;;;;;;;;;6.80;99.90;;;;;;5141464;27;19949;-92
2023/03/02 15:21:54;;;;;;;;;;;6.80;99.90;;;;;;5139605;27;19923;-92
2023/03/02 15:24:22;;;;;;;;;;;6.70;99.90;;;;;;5147917;27;19930;-93
2023/03/02 15:26:49;;;;;;;;;;;6.70;99.90;;;;;;5152240;27;19935;-93
2023/03/02 15:29:14;;;;;;;;;;;6.80;99.90;;;;;;5159336;27;19927;-93
2023/03/02 15:31:40;;;;;;;;;;;6.80;99.90;;;;;;5139602;27;20041;-92
2023/03/02 15:34:06;;;;;;;;;;;6.60;99.90;;;;;;5140969;27;19949;-92
2023/03/02 15:36:32;;;;;;;;;;;6.60;99.90;;;;;;5154006;27;19991;-92
2023/03/02 15:38:57;;;;;;;;;;;6.70;99.90;;;;;;5146522;27;19991;-90
2023/03/02 15:41:23;;;;;;;;;;;6.70;99.90;;;;;;5139245;27;19934;-94
2023/03/02 15:43:50;;;;;;;;;;;6.70;99.90;;;;;;5118540;27;20036;-93
2023/03/02 15:46:15;;;;;;;;;;;6.50;99.90;;;;;;5139557;27;20308;-91
2023/03/02 15:48:41;;;;;;;;;;;6.40;99.90;;;;;;5160781;27;19923;-94
2023/03/02 15:51:07;;;;;;;;;;;6.60;99.90;;;;;;5125807;27;19990;-94
2023/03/02 15:53:33;;;;;;;;;;;6.40;99.90;;;;;;5146616;27;20003;-91
2023/03/02 15:56:03;;;;;;;;;;;6.40;99.90;;;;;;5164133;27;20006;-96
2023/03/02 15:58:29;;;;;;;;;;;6.30;99.90;;;;;;5146628;27;19932;-96
2023/03/02 16:00:57;;;;;;;;;;;6.30;99.90;;;;;;5138823;27;19919;-96
2023/03/02 16:03:23;;;;;;;;;;;6.40;99.90;;;;;;5126958;27;19923;-96
2023/03/02 16:05:49;;;;;;;;;;;6.20;99.90;;;;;;5150242;27;20013;-96
2023/03/02 16:08:15;;;;;;;;;;;4.80;99.90;;;;;;5139001;27;19986;-96
2023/03/02 16:10:43;;;;;;;;;;;5.20;99.90;;;;;;5118697;22;19924;-95
2023/03/02 16:13:12;;;;;;;;;;;6.00;99.90;;;;;;5055029;28;19912;-96
2023/03/02 16:15:41;;;;;;;;;;;5.90;99.90;;;;;;5069148;28;19925;-96
2023/03/02 16:18:08;;;;;;;;;;;5.80;99.90;;;;;;5067765;28;19947;-96
2023/03/02 16:20:35;;;;;;;;;;;6.00;99.90;;;;;;5086812;28;19935;-96
2023/03/02 16:23:05;;;;;;;;;;;5.80;99.90;;;;;;5071255;28;19931;-96
2023/03/02 16:25:42;;;;;;;;;;;6.10;99.90;;;;;;5074893;28;20302;-95
2023/03/02 16:28:11;;;;;;;;;;;6.00;99.90;;;;;;5050687;28;19924;-95
2023/03/02 16:30:40;;;;;;;;;;;5.60;99.90;;;;;;5066197;28;19980;-96
2023/03/02 16:33:07;;;;;;;;;;;3.60;99.90;;;;;;5068069;28;20035;-94
2023/03/02 16:43:23;;;;;;;;;;;5.20;99.90;;;;;;5052018;26;19932;-91
2023/03/02 16:46:02;;;;;;;;;;;7.50;99.90;;;;;;5019447;28;19959;-91
2023/03/02 16:51:41;;;;;;;;;;;5.30;99.90;;;;;;5020221;28;19979;-91
2023/03/02 16:57:01;;;;;;;;;;;5.30;99.90;;;;;;5019561;28;19978;-90
2023/03/02 16:59:39;;;;;;;;;;;7.20;99.90;;;;;;5030381;28;20020;-90
2023/03/02 17:02:35;;;;;;;;;;;;;;;;;;;;;
2023/03/02 17:05:10;;;;;;;;;;;8.20;99.90;;;;;;5031586;28;20015;-92
2023/03/02 17:07:49;;;;;;;;;;;6.60;99.90;;;;;;5019079;28;19928;-92
2023/03/02 17:10:45;;;;;;;;;;;2.70;99.90;;;;;;5017501;28;19925;-91
2023/03/02 17:13:25;;;;;;;;;;;;;;;;;;;;;
2023/03/02 17:16:14;;;;;;;;;;;;;;;;;;;;;
2023/03/02 17:18:50;;;;;;;;;;;;;;;;;;;;;
2023/03/02 17:21:29;;;;;;;;;;;3.70;99.90;;;;;;5032910;28;20367;-90
2023/03/02 17:24:09;;;;;;;;;;;4.70;99.90;;;;;;5000850;28;19975;-91
2023/03/02 17:26:46;;;;;;;;;;;3.80;99.90;;;;;;5019107;28;19995;-90
2023/03/02 17:29:21;;;;;;;;;;;4.40;99.90;;;;;;5017389;28;19925;-90
2023/03/02 17:32:10;;;;;;;;;;;;;;;;;;;;;
2023/03/02 17:34:36;;;;;;;;;;;4.20;99.90;;;;;;5015341;28;19929;-90
2023/03/02 17:37:24;;;;;;;;;;;2.30;99.90;;;;;;5006415;28;19933;-90
2023/03/02 17:40:00;;;;;;;;;;;;;;;;;;;;;
2023/03/02 17:42:36;;;;;;;;;;;;;;;;;;;;;
2023/03/02 17:45:10;;;;;;;;;;;3.70;99.90;;;;;;5044237;28;20050;-90
2023/03/02 17:47:45;;;;;;;;;;;3.30;99.90;;;;;;5003450;28;19939;-91
2023/03/02 17:50:28;;;;;;;;;;;3.80;99.90;;;;;;5016794;28;19925;-90
2023/03/02 17:53:02;;;;;;;;;;;3.90;99.90;;;;;;5024169;28;20008;-90
2023/03/02 17:55:35;;;;;;;;;;;3.70;99.90;;;;;;5040631;28;19935;-91
2023/03/02 17:58:18;;;;;;;;;;;5.70;99.90;;;;;;5039308;28;19921;-90
2023/03/02 18:00:56;;;;;;;;;;;4.20;99.90;;;;;;5023443;28;19939;-90
2023/03/02 18:03:26;;;;;;;;;;;3.30;99.90;;;;;;5043554;28;19931;-89
2023/03/02 18:05:55;;;;;;;;;;;5.10;99.90;;;;;;5038134;28;19909;-90
2023/03/02 18:08:25;;;;;;;;;;;3.80;99.90;;;;;;5024908;28;19929;-89
2023/03/02 18:11:14;;;;;;;;;;;4.10;99.90;;;;;;5027942;28;19913;-90
2023/03/02 18:13:56;;;;;;;;;;;3.60;99.90;;;;;;5035040;28;19972;-90
2023/03/02 18:16:26;;;;;;;;;;;3.30;99.90;;;;;;5020627;28;20364;-90
2023/03/02 18:19:13;;;;;;;;;;;3.20;99.90;;;;;;5019460;28;19925;-90
2023/03/02 18:21:41;;;;;;;;;;;4.40;99.90;;;;;;5034812;28;19974;-90
2023/03/02 18:24:15;;;;;;;;;;;5.60;99.90;;;;;;5035848;28;20075;-90
2023/03/02 18:26:51;;;;;;;;;;;4.80;99.90;;;;;;5019032;28;19967;-90
2023/03/02 18:29:31;;;;;;;;;;;3.00;99.90;;;;;;5036444;28;19925;-90
2023/03/02 18:32:00;;;;;;;;;;;3.70;99.90;;;;;;5019351;28;19925;-90
2023/03/02 18:34:31;;;;;;;;;;;0.90;99.90;;;;;;5014857;28;20373;-90
2023/03/02 18:37:05;;;;;;;;;;;2.90;99.90;;;;;;5016203;28;19933;-90
2023/03/02 18:39:48;;;;;;;;;;;;;;;;;;;;;
2023/03/02 18:42:25;;;;;;;;;;;1.20;99.90;;;;;;5032318;28;19925;-91
2023/03/02 18:44:59;;;;;;;;;;;0.60;99.90;;;;;;5027875;28;20074;-90
2023/03/02 18:47:27;;;;;;;;;;;5.00;99.90;;;;;;5035817;28;19924;-89
2023/03/02 18:50:00;;;;;;;;;;;2.90;99.90;;;;;;5018253;28;19968;-90
2023/03/02 18:52:37;;;;;;;;;;;0.70;99.90;;;;;;5019481;28;20416;-90
2023/03/02 18:55:08;;;;;;;;;;;2.80;99.90;;;;;;5020041;28;20449;-90
2023/03/02 18:57:35;;;;;;;;;;;3.10;99.90;;;;;;5002449;28;19932;-90
2023/03/02 19:00:06;;;;;;;;;;;3.70;99.90;;;;;;5014442;28;20339;-90
2023/03/02 19:02:44;;;;;;;;;;;;;;;;;;;;;
2023/03/02 19:05:23;;;;;;;;;;;;;;;;;;;;;
2023/03/02 19:07:59;;;;;;;;;;;;;;;;;;;;;
2023/03/02 19:10:41;;;;;;;;;;;2.60;99.90;;;;;;5035115;28;20008;-90
2023/03/02 19:13:19;;;;;;;;;;;;;;;;;;;;;
2023/03/02 19:15:53;;;;;;;;;;;4.50;99.90;;;;;;5028803;28;19948;-89
2023/03/02 19:18:29;;;;;;;;;;;2.50;99.90;;;;;;5009280;28;19932;-90
2023/03/02 19:21:04;;;;;;;;;;;4.20;99.90;;;;;;5035433;28;19925;-91
2023/03/02 19:23:41;;;;;;;;;;;3.70;99.90;;;;;;5018777;28;20393;-90
2023/03/02 19:26:16;;;;;;;;;;;2.50;99.90;;;;;;5035053;28;20325;-90
2023/03/02 19:28:53;;;;;;;;;;;4.20;99.90;;;;;;4999788;28;20345;-89
2023/03/02 19:31:21;;;;;;;;;;;2.60;99.90;;;;;;4998305;28;19991;-90
2023/03/02 19:33:55;;;;;;;;;;;1.60;99.90;;;;;;5023786;28;20016;-91